sensor_id;sensor_type;location;lat;lon;timestamp;P1;durP1;ratioP1;P2;durP2;ratioP2
27402;SDS011;14862;49.494;8.530;2023-11-18T00:00:23;11.00;;;7.88;;
27402;SDS011;14862;49.494;8.530;2023-11-18T00:02:49;11.07;;;8.07;;
27402;SDS011;14862;49.494;8.530;2023-11-18T00:05:15;12.32;;;8.85;;
27402;SDS011;14862;49.494;8.530;2023-11-18T00:07:40;11.88;;;9.40;;
27402;SDS011;14862;49.494;8.530;2023-11-18T00:10:06;13.63;;;9.80;;
27402;SDS011;14862;49.494;8.530;2023-11-18T00:12:32;12.98;;;9.85;;
27402;SDS011;14862;49.494;8.530;2023-11-18T00:14:59;13.75;;;9.63;;
27402;SDS011;14862;49.494;8.530;2023-11-18T00:17:24;15.50;;;10.57;;
27402;SDS011;14862;49.494;8.530;2023-11-18T00:19:50;16.08;;;10.68;;
27402;SDS011;14862;49.494;8.530;2023-11-18T00:22:15;10.02;;;8.43;;
27402;SDS011;14862;49.494;8.530;2023-11-18T00:24:40;12.57;;;9.98;;
27402;SDS011;14862;49.494;8.530;2023-11-18T00:27:05;14.03;;;10.23;;
27402;SDS011;14862;49.494;8.530;2023-11-18T00:29:34;11.15;;;8.65;;
27402;SDS011;14862;49.494;8.530;2023-11-18T00:32:00;14.40;;;9.70;;
27402;SDS011;14862;49.494;8.530;2023-11-18T00:34:25;11.20;;;9.38;;
27402;SDS011;14862;49.494;8.530;2023-11-18T00:36:50;10.20;;;8.50;;
27402;SDS011;14862;49.494;8.530;2023-11-18T00:39:17;11.25;;;8.77;;
27402;SDS011;14862;49.494;8.530;2023-11-18T00:41:42;13.10;;;9.05;;
27402;SDS011;14862;49.494;8.530;2023-11-18T00:44:07;12.27;;;8.45;;
27402;SDS011;14862;49.494;8.530;2023-11-18T00:46:33;11.75;;;9.40;;
27402;SDS011;14862;49.494;8.530;2023-11-18T00:49:01;10.88;;;7.10;;
27402;SDS011;14862;49.494;8.530;2023-11-18T00:51:26;9.48;;;7.82;;
27402;SDS011;14862;49.494;8.530;2023-11-18T00:53:53;10.45;;;7.25;;
27402;SDS011;14862;49.494;8.530;2023-11-18T00:56:19;9.98;;;7.32;;
27402;SDS011;14862;49.494;8.530;2023-11-18T00:58:47;12.50;;;8.40;;
27402;SDS011;14862;49.494;8.530;2023-11-18T01:01:12;11.73;;;8.23;;
27402;SDS011;14862;49.494;8.530;2023-11-18T01:03:37;11.80;;;7.80;;
27402;SDS011;14862;49.494;8.530;2023-11-18T01:06:03;9.77;;;7.55;;
27402;SDS011;14862;49.494;8.530;2023-11-18T01:08:30;9.88;;;7.43;;
27402;SDS011;14862;49.494;8.530;2023-11-18T01:10:55;10.77;;;8.07;;
27402;SDS011;14862;49.494;8.530;2023-11-18T01:13:20;9.15;;;7.45;;
27402;SDS011;14862;49.494;8.530;2023-11-18T01:15:45;11.35;;;8.18;;
27402;SDS011;14862;49.494;8.530;2023-11-18T01:18:10;9.32;;;7.43;;
27402;SDS011;14862;49.494;8.530;2023-11-18T01:20:36;10.30;;;7.70;;
27402;SDS011;14862;49.494;8.530;2023-11-18T01:23:02;11.95;;;8.02;;
27402;SDS011;14862;49.494;8.530;2023-11-18T01:25:27;10.48;;;7.55;;
27402;SDS011;14862;49.494;8.530;2023-11-18T01:27:53;11.18;;;8.10;;
27402;SDS011;14862;49.494;8.530;2023-11-18T01:30:18;10.57;;;7.90;;
27402;SDS011;14862;49.494;8.530;2023-11-18T01:32:43;12.85;;;8.52;;
27402;SDS011;14862;49.494;8.530;2023-11-18T01:35:09;11.90;;;7.72;;
27402;SDS011;14862;49.494;8.530;2023-11-18T01:37:35;12.25;;;8.05;;
27402;SDS011;14862;49.494;8.530;2023-11-18T01:40:01;10.50;;;8.02;;
27402;SDS011;14862;49.494;8.530;2023-11-18T01:42:30;11.02;;;7.82;;
27402;SDS011;14862;49.494;8.530;2023-11-18T01:44:56;11.20;;;8.18;;
27402;SDS011;14862;49.494;8.530;2023-11-18T01:47:21;13.07;;;8.77;;
27402;SDS011;14862;49.494;8.530;2023-11-18T01:49:47;14.80;;;9.20;;
27402;SDS011;14862;49.494;8.530;2023-11-18T01:52:12;12.63;;;8.75;;
27402;SDS011;14862;49.494;8.530;2023-11-18T01:54:37;9.90;;;8.60;;
27402;SDS011;14862;49.494;8.530;2023-11-18T01:57:03;9.85;;;7.53;;
27402;SDS011;14862;49.494;8.530;2023-11-18T01:59:30;8.68;;;6.72;;
27402;SDS011;14862;49.494;8.530;2023-11-18T02:01:58;9.13;;;7.45;;
27402;SDS011;14862;49.494;8.530;2023-11-18T02:04:24;10.63;;;8.00;;
27402;SDS011;14862;49.494;8.530;2023-11-18T02:06:50;8.85;;;6.57;;
27402;SDS011;14862;49.494;8.530;2023-11-18T02:09:19;11.10;;;7.85;;
27402;SDS011;14862;49.494;8.530;2023-11-18T02:14:29;12.43;;;9.18;;
27402;SDS011;14862;49.494;8.530;2023-11-18T02:16:58;11.23;;;8.73;;
27402;SDS011;14862;49.494;8.530;2023-11-18T02:19:24;17.58;;;11.18;;
27402;SDS011;14862;49.494;8.530;2023-11-18T02:21:50;16.25;;;10.30;;
27402;SDS011;14862;49.494;8.530;2023-11-18T02:24:29;17.05;;;10.68;;
27402;SDS011;14862;49.494;8.530;2023-11-18T02:26:56;17.65;;;10.57;;
27402;SDS011;14862;49.494;8.530;2023-11-18T02:29:22;15.57;;;9.48;;
27402;SDS011;14862;49.494;8.530;2023-11-18T02:31:47;13.85;;;9.82;;
27402;SDS011;14862;49.494;8.530;2023-11-18T02:34:16;15.10;;;9.30;;
27402;SDS011;14862;49.494;8.530;2023-11-18T02:36:46;12.57;;;8.85;;
27402;SDS011;14862;49.494;8.530;2023-11-18T02:39:12;16.88;;;9.50;;
27402;SDS011;14862;49.494;8.530;2023-11-18T02:41:42;10.82;;;7.85;;
27402;SDS011;14862;49.494;8.530;2023-11-18T02:44:10;8.50;;;6.82;;
27402;SDS011;14862;49.494;8.530;2023-11-18T02:46:36;9.73;;;6.45;;
27402;SDS011;14862;49.494;8.530;2023-11-18T02:49:01;7.65;;;5.65;;
27402;SDS011;14862;49.494;8.530;2023-11-18T02:51:27;8.23;;;5.15;;
27402;SDS011;14862;49.494;8.530;2023-11-18T02:53:52;7.78;;;5.47;;
27402;SDS011;14862;49.494;8.530;2023-11-18T02:56:18;5.97;;;4.72;;
27402;SDS011;14862;49.494;8.530;2023-11-18T02:58:43;6.32;;;4.80;;
27402;SDS011;14862;49.494;8.530;2023-11-18T03:01:09;8.00;;;6.50;;
27402;SDS011;14862;49.494;8.530;2023-11-18T03:03:34;8.68;;;6.65;;
27402;SDS011;14862;49.494;8.530;2023-11-18T03:05:59;9.60;;;6.43;;
27402;SDS011;14862;49.494;8.530;2023-11-18T03:08:25;7.83;;;5.77;;
27402;SDS011;14862;49.494;8.530;2023-11-18T03:10:50;7.82;;;6.22;;
27402;SDS011;14862;49.494;8.530;2023-11-18T03:13:17;9.50;;;6.60;;
27402;SDS011;14862;49.494;8.530;2023-11-18T03:15:42;11.27;;;6.97;;
27402;SDS011;14862;49.494;8.530;2023-11-18T03:18:08;10.88;;;7.55;;
27402;SDS011;14862;49.494;8.530;2023-11-18T03:20:33;8.95;;;6.95;;
27402;SDS011;14862;49.494;8.530;2023-11-18T03:22:59;11.95;;;8.88;;
27402;SDS011;14862;49.494;8.530;2023-11-18T03:25:24;10.82;;;8.07;;
27402;SDS011;14862;49.494;8.530;2023-11-18T03:27:50;11.30;;;7.97;;
27402;SDS011;14862;49.494;8.530;2023-11-18T03:30:15;8.75;;;7.03;;
27402;SDS011;14862;49.494;8.530;2023-11-18T03:32:41;6.95;;;5.90;;
27402;SDS011;14862;49.494;8.530;2023-11-18T03:35:07;9.30;;;6.68;;
27402;SDS011;14862;49.494;8.530;2023-11-18T03:37:43;8.00;;;6.47;;
27402;SDS011;14862;49.494;8.530;2023-11-18T03:40:08;11.07;;;8.40;;
27402;SDS011;14862;49.494;8.530;2023-11-18T03:42:34;9.55;;;7.70;;
27402;SDS011;14862;49.494;8.530;2023-11-18T03:45:00;14.77;;;9.45;;
27402;SDS011;14862;49.494;8.530;2023-11-18T03:47:25;13.77;;;8.93;;
27402;SDS011;14862;49.494;8.530;2023-11-18T03:49:50;12.43;;;9.07;;
27402;SDS011;14862;49.494;8.530;2023-11-18T03:52:16;12.63;;;9.15;;
27402;SDS011;14862;49.494;8.530;2023-11-18T03:54:41;12.45;;;9.32;;
27402;SDS011;14862;49.494;8.530;2023-11-18T03:57:06;12.45;;;10.20;;
27402;SDS011;14862;49.494;8.530;2023-11-18T03:59:32;18.20;;;12.90;;
27402;SDS011;14862;49.494;8.530;2023-11-18T04:01:57;15.43;;;12.23;;
27402;SDS011;14862;49.494;8.530;2023-11-18T04:04:23;17.70;;;12.02;;
27402;SDS011;14862;49.494;8.530;2023-11-18T04:06:48;16.83;;;11.00;;
27402;SDS011;14862;49.494;8.530;2023-11-18T04:09:13;15.75;;;12.00;;
27402;SDS011;14862;49.494;8.530;2023-11-18T04:11:39;16.17;;;12.63;;
27402;SDS011;14862;49.494;8.530;2023-11-18T04:14:05;17.27;;;13.20;;
27402;SDS011;14862;49.494;8.530;2023-11-18T04:16:30;18.42;;;12.80;;
27402;SDS011;14862;49.494;8.530;2023-11-18T04:18:55;20.17;;;13.63;;
27402;SDS011;14862;49.494;8.530;2023-11-18T04:21:21;18.25;;;12.85;;
27402;SDS011;14862;49.494;8.530;2023-11-18T04:23:46;19.08;;;12.60;;
27402;SDS011;14862;49.494;8.530;2023-11-18T04:26:11;17.98;;;12.57;;
27402;SDS011;14862;49.494;8.530;2023-11-18T04:28:36;18.33;;;13.23;;
27402;SDS011;14862;49.494;8.530;2023-11-18T04:31:02;17.95;;;12.55;;
27402;SDS011;14862;49.494;8.530;2023-11-18T04:33:30;22.30;;;13.35;;
27402;SDS011;14862;49.494;8.530;2023-11-18T04:35:55;20.98;;;13.18;;
27402;SDS011;14862;49.494;8.530;2023-11-18T04:38:24;21.25;;;14.43;;
27402;SDS011;14862;49.494;8.530;2023-11-18T04:40:50;21.70;;;14.65;;
27402;SDS011;14862;49.494;8.530;2023-11-18T04:43:15;20.40;;;13.85;;
27402;SDS011;14862;49.494;8.530;2023-11-18T04:45:44;19.60;;;13.98;;
27402;SDS011;14862;49.494;8.530;2023-11-18T04:48:09;23.45;;;14.52;;
27402;SDS011;14862;49.494;8.530;2023-11-18T04:50:34;23.77;;;15.77;;
27402;SDS011;14862;49.494;8.530;2023-11-18T04:53:00;26.00;;;16.35;;
27402;SDS011;14862;49.494;8.530;2023-11-18T04:55:25;25.15;;;16.23;;
27402;SDS011;14862;49.494;8.530;2023-11-18T04:57:53;25.05;;;17.45;;
27402;SDS011;14862;49.494;8.530;2023-11-18T05:00:20;28.20;;;17.00;;
27402;SDS011;14862;49.494;8.530;2023-11-18T05:02:45;26.65;;;16.75;;
27402;SDS011;14862;49.494;8.530;2023-11-18T05:05:14;28.20;;;17.30;;
27402;SDS011;14862;49.494;8.530;2023-11-18T05:07:42;26.48;;;17.63;;
27402;SDS011;14862;49.494;8.530;2023-11-18T05:10:07;29.88;;;18.10;;
27402;SDS011;14862;49.494;8.530;2023-11-18T05:12:33;33.72;;;19.92;;
27402;SDS011;14862;49.494;8.530;2023-11-18T05:14:58;31.60;;;19.65;;
27402;SDS011;14862;49.494;8.530;2023-11-18T05:17:23;29.95;;;19.58;;
27402;SDS011;14862;49.494;8.530;2023-11-18T05:19:49;36.03;;;20.92;;
27402;SDS011;14862;49.494;8.530;2023-11-18T05:22:14;34.58;;;21.58;;
27402;SDS011;14862;49.494;8.530;2023-11-18T05:24:39;35.67;;;21.95;;
27402;SDS011;14862;49.494;8.530;2023-11-18T05:27:04;35.30;;;21.00;;
27402;SDS011;14862;49.494;8.530;2023-11-18T05:29:30;33.83;;;20.92;;
27402;SDS011;14862;49.494;8.530;2023-11-18T05:31:55;43.58;;;23.02;;
27402;SDS011;14862;49.494;8.530;2023-11-18T05:34:21;39.83;;;21.60;;
27402;SDS011;14862;49.494;8.530;2023-11-18T05:36:49;39.50;;;22.65;;
27402;SDS011;14862;49.494;8.530;2023-11-18T05:39:19;39.45;;;21.80;;
27402;SDS011;14862;49.494;8.530;2023-11-18T05:41:45;39.38;;;22.63;;
27402;SDS011;14862;49.494;8.530;2023-11-18T05:44:14;43.30;;;23.02;;
27402;SDS011;14862;49.494;8.530;2023-11-18T05:46:44;35.53;;;21.30;;
27402;SDS011;14862;49.494;8.530;2023-11-18T05:49:11;36.38;;;21.10;;
27402;SDS011;14862;49.494;8.530;2023-11-18T05:51:38;38.92;;;21.92;;
27402;SDS011;14862;49.494;8.530;2023-11-18T05:54:04;37.63;;;21.55;;
27402;SDS011;14862;49.494;8.530;2023-11-18T05:56:30;34.85;;;20.67;;
27402;SDS011;14862;49.494;8.530;2023-11-18T05:58:55;33.95;;;20.42;;
27402;SDS011;14862;49.494;8.530;2023-11-18T06:01:21;33.92;;;20.63;;
27402;SDS011;14862;49.494;8.530;2023-11-18T06:03:46;35.67;;;21.92;;
27402;SDS011;14862;49.494;8.530;2023-11-18T06:06:12;34.60;;;20.52;;
27402;SDS011;14862;49.494;8.530;2023-11-18T06:08:39;35.50;;;21.38;;
27402;SDS011;14862;49.494;8.530;2023-11-18T06:11:06;36.65;;;22.98;;
27402;SDS011;14862;49.494;8.530;2023-11-18T06:13:38;33.53;;;21.85;;
27402;SDS011;14862;49.494;8.530;2023-11-18T06:16:07;40.25;;;21.90;;
27402;SDS011;14862;49.494;8.530;2023-11-18T06:18:32;38.20;;;23.58;;
27402;SDS011;14862;49.494;8.530;2023-11-18T06:20:58;39.58;;;22.98;;
27402;SDS011;14862;49.494;8.530;2023-11-18T06:23:23;42.28;;;26.10;;
27402;SDS011;14862;49.494;8.530;2023-11-18T06:25:48;45.75;;;24.15;;
27402;SDS011;14862;49.494;8.530;2023-11-18T06:28:13;41.35;;;25.27;;
27402;SDS011;14862;49.494;8.530;2023-11-18T06:30:40;41.60;;;23.88;;
27402;SDS011;14862;49.494;8.530;2023-11-18T06:33:06;52.78;;;26.13;;
27402;SDS011;14862;49.494;8.530;2023-11-18T06:35:31;43.58;;;27.00;;
27402;SDS011;14862;49.494;8.530;2023-11-18T06:37:59;43.92;;;26.23;;
27402;SDS011;14862;49.494;8.530;2023-11-18T06:40:24;47.63;;;25.85;;
27402;SDS011;14862;49.494;8.530;2023-11-18T06:42:52;57.97;;;30.50;;
27402;SDS011;14862;49.494;8.530;2023-11-18T06:45:19;49.78;;;29.17;;
27402;SDS011;14862;49.494;8.530;2023-11-18T06:47:47;48.17;;;29.38;;
27402;SDS011;14862;49.494;8.530;2023-11-18T06:50:14;46.38;;;27.05;;
27402;SDS011;14862;49.494;8.530;2023-11-18T06:52:40;51.90;;;28.98;;
27402;SDS011;14862;49.494;8.530;2023-11-18T06:55:10;47.97;;;28.00;;
27402;SDS011;14862;49.494;8.530;2023-11-18T06:57:36;49.35;;;28.70;;
27402;SDS011;14862;49.494;8.530;2023-11-18T07:00:01;51.57;;;27.93;;
27402;SDS011;14862;49.494;8.530;2023-11-18T07:02:32;43.45;;;25.48;;
27402;SDS011;14862;49.494;8.530;2023-11-18T07:04:58;47.22;;;26.95;;
27402;SDS011;14862;49.494;8.530;2023-11-18T07:07:23;43.97;;;25.70;;
27402;SDS011;14862;49.494;8.530;2023-11-18T07:09:48;42.45;;;24.45;;
27402;SDS011;14862;49.494;8.530;2023-11-18T07:12:13;42.15;;;24.63;;
27402;SDS011;14862;49.494;8.530;2023-11-18T07:14:39;40.00;;;22.40;;
27402;SDS011;14862;49.494;8.530;2023-11-18T07:17:04;44.17;;;24.48;;
27402;SDS011;14862;49.494;8.530;2023-11-18T07:19:29;37.70;;;22.17;;
27402;SDS011;14862;49.494;8.530;2023-11-18T07:21:56;39.95;;;22.17;;
27402;SDS011;14862;49.494;8.530;2023-11-18T07:24:21;38.40;;;22.58;;
27402;SDS011;14862;49.494;8.530;2023-11-18T07:26:46;31.88;;;19.65;;
27402;SDS011;14862;49.494;8.530;2023-11-18T07:29:11;30.65;;;19.70;;
27402;SDS011;14862;49.494;8.530;2023-11-18T07:31:37;32.58;;;19.40;;
27402;SDS011;14862;49.494;8.530;2023-11-18T07:34:05;27.45;;;17.63;;
27402;SDS011;14862;49.494;8.530;2023-11-18T07:36:31;28.83;;;18.27;;
27402;SDS011;14862;49.494;8.530;2023-11-18T07:38:56;26.80;;;17.50;;
27402;SDS011;14862;49.494;8.530;2023-11-18T07:41:21;27.98;;;17.05;;
27402;SDS011;14862;49.494;8.530;2023-11-18T07:43:50;23.42;;;15.73;;
27402;SDS011;14862;49.494;8.530;2023-11-18T07:46:16;24.65;;;16.23;;
27402;SDS011;14862;49.494;8.530;2023-11-18T07:48:41;28.73;;;16.65;;
27402;SDS011;14862;49.494;8.530;2023-11-18T07:51:06;23.00;;;15.57;;
27402;SDS011;14862;49.494;8.530;2023-11-18T07:53:33;21.15;;;14.55;;
27402;SDS011;14862;49.494;8.530;2023-11-18T07:55:58;21.08;;;15.15;;
27402;SDS011;14862;49.494;8.530;2023-11-18T07:58:23;19.67;;;14.17;;
27402;SDS011;14862;49.494;8.530;2023-11-18T08:00:48;23.58;;;14.75;;
27402;SDS011;14862;49.494;8.530;2023-11-18T08:03:15;19.27;;;13.18;;
27402;SDS011;14862;49.494;8.530;2023-11-18T08:05:41;20.92;;;14.13;;
27402;SDS011;14862;49.494;8.530;2023-11-18T08:08:07;19.15;;;13.05;;
27402;SDS011;14862;49.494;8.530;2023-11-18T08:10:32;20.75;;;13.70;;
27402;SDS011;14862;49.494;8.530;2023-11-18T08:12:58;21.40;;;14.85;;
27402;SDS011;14862;49.494;8.530;2023-11-18T08:15:23;21.58;;;13.73;;
27402;SDS011;14862;49.494;8.530;2023-11-18T08:17:51;22.00;;;14.18;;
27402;SDS011;14862;49.494;8.530;2023-11-18T08:20:16;19.20;;;13.33;;
27402;SDS011;14862;49.494;8.530;2023-11-18T08:22:42;19.35;;;13.43;;
27402;SDS011;14862;49.494;8.530;2023-11-18T08:25:11;20.73;;;13.77;;
27402;SDS011;14862;49.494;8.530;2023-11-18T08:27:37;22.60;;;13.93;;
27402;SDS011;14862;49.494;8.530;2023-11-18T08:30:03;24.77;;;13.98;;
27402;SDS011;14862;49.494;8.530;2023-11-18T08:32:35;21.17;;;14.52;;
27402;SDS011;14862;49.494;8.530;2023-11-18T08:35:01;20.15;;;14.40;;
27402;SDS011;14862;49.494;8.530;2023-11-18T08:37:26;21.73;;;13.77;;
27402;SDS011;14862;49.494;8.530;2023-11-18T08:39:52;18.73;;;13.60;;
27402;SDS011;14862;49.494;8.530;2023-11-18T08:42:18;20.67;;;13.25;;
27402;SDS011;14862;49.494;8.530;2023-11-18T08:44:43;22.60;;;12.52;;
27402;SDS011;14862;49.494;8.530;2023-11-18T08:47:13;19.10;;;13.02;;
27402;SDS011;14862;49.494;8.530;2023-11-18T08:49:38;21.38;;;12.52;;
27402;SDS011;14862;49.494;8.530;2023-11-18T08:52:05;19.23;;;12.95;;
27402;SDS011;14862;49.494;8.530;2023-11-18T08:54:35;19.20;;;10.98;;
27402;SDS011;14862;49.494;8.530;2023-11-18T08:57:05;20.52;;;11.52;;
27402;SDS011;14862;49.494;8.530;2023-11-18T08:59:49;18.45;;;11.70;;
27402;SDS011;14862;49.494;8.530;2023-11-18T09:02:14;17.60;;;11.32;;
27402;SDS011;14862;49.494;8.530;2023-11-18T09:04:42;17.55;;;11.15;;
27402;SDS011;14862;49.494;8.530;2023-11-18T09:07:08;16.30;;;10.85;;
27402;SDS011;14862;49.494;8.530;2023-11-18T09:09:35;17.13;;;11.48;;
27402;SDS011;14862;49.494;8.530;2023-11-18T09:12:00;14.77;;;10.57;;
27402;SDS011;14862;49.494;8.530;2023-11-18T09:14:27;16.48;;;9.85;;
27402;SDS011;14862;49.494;8.530;2023-11-18T09:16:53;14.70;;;9.95;;
27402;SDS011;14862;49.494;8.530;2023-11-18T09:19:23;14.48;;;9.75;;
27402;SDS011;14862;49.494;8.530;2023-11-18T09:21:49;17.52;;;10.35;;
27402;SDS011;14862;49.494;8.530;2023-11-18T09:24:16;14.52;;;10.10;;
27402;SDS011;14862;49.494;8.530;2023-11-18T09:26:44;17.38;;;10.00;;
27402;SDS011;14862;49.494;8.530;2023-11-18T09:29:12;11.05;;;9.07;;
27402;SDS011;14862;49.494;8.530;2023-11-18T09:31:38;14.75;;;10.13;;
27402;SDS011;14862;49.494;8.530;2023-11-18T09:34:04;18.35;;;11.07;;
27402;SDS011;14862;49.494;8.530;2023-11-18T09:36:40;14.48;;;9.82;;
27402;SDS011;14862;49.494;8.530;2023-11-18T09:39:08;13.57;;;9.20;;
27402;SDS011;14862;49.494;8.530;2023-11-18T09:41:33;17.90;;;9.57;;
27402;SDS011;14862;49.494;8.530;2023-11-18T09:44:00;13.90;;;10.13;;
27402;SDS011;14862;49.494;8.530;2023-11-18T09:46:27;14.52;;;10.68;;
27402;SDS011;14862;49.494;8.530;2023-11-18T09:51:27;12.45;;;8.82;;
27402;SDS011;14862;49.494;8.530;2023-11-18T09:53:57;18.10;;;10.73;;
27402;SDS011;14862;49.494;8.530;2023-11-18T09:59:14;14.30;;;8.35;;
27402;SDS011;14862;49.494;8.530;2023-11-18T10:01:42;12.95;;;7.93;;
27402;SDS011;14862;49.494;8.530;2023-11-18T10:04:09;10.52;;;7.65;;
27402;SDS011;14862;49.494;8.530;2023-11-18T10:06:35;11.10;;;8.30;;
27402;SDS011;14862;49.494;8.530;2023-11-18T10:09:06;13.20;;;8.40;;
27402;SDS011;14862;49.494;8.530;2023-11-18T10:11:44;11.13;;;9.27;;
27402;SDS011;14862;49.494;8.530;2023-11-18T10:14:11;10.93;;;8.10;;
27402;SDS011;14862;49.494;8.530;2023-11-18T10:16:40;12.98;;;8.43;;
27402;SDS011;14862;49.494;8.530;2023-11-18T10:19:07;10.85;;;8.82;;
27402;SDS011;14862;49.494;8.530;2023-11-18T10:21:36;17.02;;;10.15;;
27402;SDS011;14862;49.494;8.530;2023-11-18T10:24:04;10.88;;;8.10;;
27402;SDS011;14862;49.494;8.530;2023-11-18T10:26:35;14.55;;;8.75;;
27402;SDS011;14862;49.494;8.530;2023-11-18T10:29:03;14.07;;;9.15;;
27402;SDS011;14862;49.494;8.530;2023-11-18T10:31:32;14.18;;;8.23;;
27402;SDS011;14862;49.494;8.530;2023-11-18T10:34:00;10.60;;;7.97;;
27402;SDS011;14862;49.494;8.530;2023-11-18T10:36:25;12.60;;;7.55;;
27402;SDS011;14862;49.494;8.530;2023-11-18T10:38:51;17.63;;;8.75;;
27402;SDS011;14862;49.494;8.530;2023-11-18T10:41:20;13.13;;;8.25;;
27402;SDS011;14862;49.494;8.530;2023-11-18T10:43:45;17.83;;;11.57;;
27402;SDS011;14862;49.494;8.530;2023-11-18T10:46:13;12.25;;;8.82;;
27402;SDS011;14862;49.494;8.530;2023-11-18T10:48:40;11.23;;;7.40;;
27402;SDS011;14862;49.494;8.530;2023-11-18T10:51:08;11.52;;;7.30;;
27402;SDS011;14862;49.494;8.530;2023-11-18T10:53:34;12.93;;;7.82;;
27402;SDS011;14862;49.494;8.530;2023-11-18T10:56:02;13.35;;;8.15;;
27402;SDS011;14862;49.494;8.530;2023-11-18T10:58:34;12.20;;;9.05;;
27402;SDS011;14862;49.494;8.530;2023-11-18T11:01:00;10.30;;;8.32;;
27402;SDS011;14862;49.494;8.530;2023-11-18T11:03:25;11.68;;;8.45;;
27402;SDS011;14862;49.494;8.530;2023-11-18T11:05:51;11.77;;;9.23;;
27402;SDS011;14862;49.494;8.530;2023-11-18T11:08:17;11.30;;;8.43;;
27402;SDS011;14862;49.494;8.530;2023-11-18T11:10:43;14.57;;;8.10;;
27402;SDS011;14862;49.494;8.530;2023-11-18T11:13:09;11.68;;;8.88;;
27402;SDS011;14862;49.494;8.530;2023-11-18T11:15:36;12.98;;;9.02;;
27402;SDS011;14862;49.494;8.530;2023-11-18T11:18:05;12.07;;;7.93;;
27402;SDS011;14862;49.494;8.530;2023-11-18T11:20:55;15.45;;;8.93;;
27402;SDS011;14862;49.494;8.530;2023-11-18T11:23:30;14.13;;;8.77;;
27402;SDS011;14862;49.494;8.530;2023-11-18T11:28:27;11.77;;;6.57;;
27402;SDS011;14862;49.494;8.530;2023-11-18T11:30:58;13.35;;;7.45;;
27402;SDS011;14862;49.494;8.530;2023-11-18T11:33:39;9.40;;;6.65;;
27402;SDS011;14862;49.494;8.530;2023-11-18T11:36:09;9.43;;;6.10;;
27402;SDS011;14862;49.494;8.530;2023-11-18T11:38:37;11.07;;;6.30;;
27402;SDS011;14862;49.494;8.530;2023-11-18T11:41:02;9.52;;;6.30;;
27402;SDS011;14862;49.494;8.530;2023-11-18T11:43:32;7.72;;;6.00;;
27402;SDS011;14862;49.494;8.530;2023-11-18T11:46:00;7.47;;;5.65;;
27402;SDS011;14862;49.494;8.530;2023-11-18T11:48:28;5.68;;;4.95;;
27402;SDS011;14862;49.494;8.530;2023-11-18T11:51:19;10.52;;;6.38;;
27402;SDS011;14862;49.494;8.530;2023-11-18T11:54:11;23.98;;;13.02;;
27402;SDS011;14862;49.494;8.530;2023-11-18T11:56:43;13.90;;;7.80;;
27402;SDS011;14862;49.494;8.530;2023-11-18T11:59:09;6.63;;;5.30;;
27402;SDS011;14862;49.494;8.530;2023-11-18T12:01:36;7.68;;;5.35;;
27402;SDS011;14862;49.494;8.530;2023-11-18T12:04:11;7.45;;;5.32;;
27402;SDS011;14862;49.494;8.530;2023-11-18T12:06:45;9.60;;;5.47;;
27402;SDS011;14862;49.494;8.530;2023-11-18T12:09:12;9.02;;;5.45;;
27402;SDS011;14862;49.494;8.530;2023-11-18T12:11:44;6.07;;;4.88;;
27402;SDS011;14862;49.494;8.530;2023-11-18T12:14:13;7.03;;;5.20;;
27402;SDS011;14862;49.494;8.530;2023-11-18T12:19:31;8.48;;;4.88;;
27402;SDS011;14862;49.494;8.530;2023-11-18T12:22:01;6.40;;;4.10;;
27402;SDS011;14862;49.494;8.530;2023-11-18T12:24:26;6.05;;;4.25;;
27402;SDS011;14862;49.494;8.530;2023-11-18T12:26:54;5.05;;;4.22;;
27402;SDS011;14862;49.494;8.530;2023-11-18T12:29:32;6.25;;;4.20;;
27402;SDS011;14862;49.494;8.530;2023-11-18T12:31:59;6.53;;;4.30;;
27402;SDS011;14862;49.494;8.530;2023-11-18T12:34:24;6.90;;;4.00;;
27402;SDS011;14862;49.494;8.530;2023-11-18T12:41:43;8.10;;;4.80;;
27402;SDS011;14862;49.494;8.530;2023-11-18T12:49:15;7.68;;;4.63;;
27402;SDS011;14862;49.494;8.530;2023-11-18T12:51:42;5.78;;;4.30;;
27402;SDS011;14862;49.494;8.530;2023-11-18T12:54:08;5.82;;;3.88;;
27402;SDS011;14862;49.494;8.530;2023-11-18T12:56:34;14.18;;;7.22;;
27402;SDS011;14862;49.494;8.530;2023-11-18T12:58:59;9.63;;;4.53;;
27402;SDS011;14862;49.494;8.530;2023-11-18T13:01:25;6.03;;;3.70;;
27402;SDS011;14862;49.494;8.530;2023-11-18T13:03:52;5.07;;;3.30;;
27402;SDS011;14862;49.494;8.530;2023-11-18T13:06:18;7.93;;;3.78;;
27402;SDS011;14862;49.494;8.530;2023-11-18T13:08:44;7.13;;;3.25;;
27402;SDS011;14862;49.494;8.530;2023-11-18T13:11:09;4.20;;;2.90;;
27402;SDS011;14862;49.494;8.530;2023-11-18T13:13:41;7.07;;;3.30;;
27402;SDS011;14862;49.494;8.530;2023-11-18T13:16:06;5.78;;;3.03;;
27402;SDS011;14862;49.494;8.530;2023-11-18T13:18:46;4.20;;;3.13;;
27402;SDS011;14862;49.494;8.530;2023-11-18T13:21:18;5.63;;;3.35;;
27402;SDS011;14862;49.494;8.530;2023-11-18T13:23:47;5.45;;;3.17;;
27402;SDS011;14862;49.494;8.530;2023-11-18T13:26:17;4.75;;;3.17;;
27402;SDS011;14862;49.494;8.530;2023-11-18T13:28:45;4.95;;;3.00;;
27402;SDS011;14862;49.494;8.530;2023-11-18T13:31:10;4.70;;;3.20;;
27402;SDS011;14862;49.494;8.530;2023-11-18T13:33:39;6.40;;;3.97;;
27402;SDS011;14862;49.494;8.530;2023-11-18T13:36:05;4.45;;;2.88;;
27402;SDS011;14862;49.494;8.530;2023-11-18T13:38:30;8.80;;;3.03;;
27402;SDS011;14862;49.494;8.530;2023-11-18T13:40:56;8.00;;;2.83;;
27402;SDS011;14862;49.494;8.530;2023-11-18T13:43:21;8.18;;;3.30;;
27402;SDS011;14862;49.494;8.530;2023-11-18T13:45:51;3.53;;;2.30;;
27402;SDS011;14862;49.494;8.530;2023-11-18T13:48:17;9.50;;;5.00;;
27402;SDS011;14862;49.494;8.530;2023-11-18T13:50:43;11.43;;;5.55;;
27402;SDS011;14862;49.494;8.530;2023-11-18T13:53:09;7.13;;;2.95;;
27402;SDS011;14862;49.494;8.530;2023-11-18T13:55:35;8.10;;;2.35;;
27402;SDS011;14862;49.494;8.530;2023-11-18T13:58:04;3.85;;;1.88;;
27402;SDS011;14862;49.494;8.530;2023-11-18T14:00:30;3.47;;;1.95;;
27402;SDS011;14862;49.494;8.530;2023-11-18T14:02:57;3.13;;;2.20;;
27402;SDS011;14862;49.494;8.530;2023-11-18T14:05:23;3.67;;;1.85;;
27402;SDS011;14862;49.494;8.530;2023-11-18T14:07:49;3.83;;;2.40;;
27402;SDS011;14862;49.494;8.530;2023-11-18T14:10:15;3.80;;;2.05;;
27402;SDS011;14862;49.494;8.530;2023-11-18T14:12:58;6.10;;;2.05;;
27402;SDS011;14862;49.494;8.530;2023-11-18T14:15:23;5.47;;;2.75;;
27402;SDS011;14862;49.494;8.530;2023-11-18T14:17:49;3.85;;;2.20;;
27402;SDS011;14862;49.494;8.530;2023-11-18T14:20:17;2.72;;;1.98;;
27402;SDS011;14862;49.494;8.530;2023-11-18T14:22:43;3.10;;;1.90;;
27402;SDS011;14862;49.494;8.530;2023-11-18T14:25:08;4.80;;;2.15;;
27402;SDS011;14862;49.494;8.530;2023-11-18T14:27:33;3.13;;;2.17;;
27402;SDS011;14862;49.494;8.530;2023-11-18T14:29:58;13.57;;;5.40;;
27402;SDS011;14862;49.494;8.530;2023-11-18T14:32:23;5.03;;;2.83;;
27402;SDS011;14862;49.494;8.530;2023-11-18T14:34:49;5.07;;;2.73;;
27402;SDS011;14862;49.494;8.530;2023-11-18T14:37:14;7.28;;;2.42;;
27402;SDS011;14862;49.494;8.530;2023-11-18T14:39:39;5.00;;;2.20;;
27402;SDS011;14862;49.494;8.530;2023-11-18T14:42:05;4.43;;;2.15;;
27402;SDS011;14862;49.494;8.530;2023-11-18T14:44:30;6.40;;;3.75;;
27402;SDS011;14862;49.494;8.530;2023-11-18T14:46:56;4.68;;;3.17;;
27402;SDS011;14862;49.494;8.530;2023-11-18T14:49:22;6.70;;;3.25;;
27402;SDS011;14862;49.494;8.530;2023-11-18T14:51:47;7.55;;;3.22;;
27402;SDS011;14862;49.494;8.530;2023-11-18T14:54:12;5.18;;;3.33;;